sensor_id;sensor_type;location;lat;lon;timestamp;pressure;altitude;pressure_sealevel;temperature;humidity
63654;BME280;49809;47.418;19.080;2023-11-19T00:02:19;101113.41;;;-0.03;100.00
63654;BME280;49809;47.418;19.080;2023-11-19T00:06:02;101123.19;;;-0.05;100.00
63654;BME280;49809;47.418;19.080;2023-11-19T00:09:33;101116.00;;;-0.03;100.00
63654;BME280;49809;47.418;19.080;2023-11-19T00:13:09;101108.03;;;-0.10;100.00
63654;BME280;49809;47.418;19.080;2023-11-19T00:16:44;101099.59;;;-0.12;100.00
63654;BME280;49809;47.418;19.080;2023-11-19T00:20:41;101102.66;;;-0.16;100.00
63654;BME280;49809;47.418;19.080;2023-11-19T00:24:30;101098.75;;;-0.12;100.00
63654;BME280;49809;47.418;19.080;2023-11-19T00:27:50;101103.97;;;-0.20;100.00
63654;BME280;49809;47.418;19.080;2023-11-19T00:31:13;101120.88;;;-0.24;100.00
63654;BME280;49809;47.418;19.080;2023-11-19T00:34:36;101132.25;;;-0.17;100.00
63654;BME280;49809;47.418;19.080;2023-11-19T00:38:03;101148.50;;;-0.23;100.00
63654;BME280;49809;47.418;19.080;2023-11-19T00:41:42;101148.84;;;-0.18;100.00
63654;BME280;49809;47.418;19.080;2023-11-19T00:45:12;101140.06;;;-0.17;100.00
63654;BME280;49809;47.418;19.080;2023-11-19T00:48:52;101127.38;;;-0.20;100.00
63654;BME280;49809;47.418;19.080;2023-11-19T00:52:27;101113.38;;;-0.19;100.00
63654;BME280;49809;47.418;19.080;2023-11-19T00:55:41;101121.66;;;-0.24;100.00
63654;BME280;49809;47.418;19.080;2023-11-19T00:59:22;101115.69;;;-0.24;100.00
63654;BME280;49809;47.418;19.080;2023-11-19T01:03:17;101113.38;;;-0.27;100.00
63654;BME280;49809;47.418;19.080;2023-11-19T01:06:53;101115.97;;;-0.27;100.00
63654;BME280;49809;47.418;19.080;2023-11-19T01:10:27;101109.66;;;-0.25;100.00
63654;BME280;49809;47.418;19.080;2023-11-19T01:13:38;101113.38;;;-0.19;100.00
63654;BME280;49809;47.418;19.080;2023-11-19T01:17:14;101119.56;;;-0.28;100.00
63654;BME280;49809;47.418;19.080;2023-11-19T01:20:53;101120.50;;;-0.37;100.00
63654;BME280;49809;47.418;19.080;2023-11-19T01:24:39;101114.97;;;-0.43;100.00
63654;BME280;49809;47.418;19.080;2023-11-19T01:28:48;101104.56;;;-0.51;100.00
63654;BME280;49809;47.418;19.080;2023-11-19T01:32:36;101102.13;;;-0.52;100.00
63654;BME280;49809;47.418;19.080;2023-11-19T01:36:35;101103.09;;;-0.53;100.00
63654;BME280;49809;47.418;19.080;2023-11-19T01:40:12;101109.59;;;-0.57;100.00
63654;BME280;49809;47.418;19.080;2023-11-19T01:43:59;101102.13;;;-0.60;100.00
63654;BME280;49809;47.418;19.080;2023-11-19T01:47:23;101104.91;;;-0.54;100.00
63654;BME280;49809;47.418;19.080;2023-11-19T01:51:16;101097.59;;;-0.58;100.00
63654;BME280;49809;47.418;19.080;2023-11-19T01:55:09;101089.09;;;-0.60;100.00
63654;BME280;49809;47.418;19.080;2023-11-19T01:58:37;101080.50;;;-0.61;100.00
63654;BME280;49809;47.418;19.080;2023-11-19T02:02:34;101069.94;;;-0.59;100.00
63654;BME280;49809;47.418;19.080;2023-11-19T02:06:20;101061.63;;;-0.63;100.00
63654;BME280;49809;47.418;19.080;2023-11-19T02:09:44;101049.97;;;-0.59;100.00
63654;BME280;49809;47.418;19.080;2023-11-19T02:13:08;101059.22;;;-0.56;100.00
63654;BME280;49809;47.418;19.080;2023-11-19T02:16:57;101047.03;;;-0.64;100.00
63654;BME280;49809;47.418;19.080;2023-11-19T02:20:20;101057.09;;;-0.61;100.00
63654;BME280;49809;47.418;19.080;2023-11-19T02:23:45;101055.47;;;-0.70;100.00
63654;BME280;49809;47.418;19.080;2023-11-19T02:31:23;101049.44;;;-0.78;100.00
63654;BME280;49809;47.418;19.080;2023-11-19T02:34:52;101037.41;;;-0.79;100.00
63654;BME280;49809;47.418;19.080;2023-11-19T02:38:42;101035.28;;;-0.84;100.00
63654;BME280;49809;47.418;19.080;2023-11-19T02:42:09;101055.06;;;-0.91;100.00
63654;BME280;49809;47.418;19.080;2023-11-19T02:45:55;101054.37;;;-1.01;100.00
63654;BME280;49809;47.418;19.080;2023-11-19T02:49:24;101041.88;;;-1.06;100.00
63654;BME280;49809;47.418;19.080;2023-11-19T02:53:22;101033.59;;;-1.09;100.00
63654;BME280;49809;47.418;19.080;2023-11-19T02:56:57;101031.31;;;-1.12;100.00
63654;BME280;49809;47.418;19.080;2023-11-19T03:00:28;101028.84;;;-1.14;100.00
63654;BME280;49809;47.418;19.080;2023-11-19T03:04:04;101022.22;;;-1.08;100.00
63654;BME280;49809;47.418;19.080;2023-11-19T03:07:29;101017.50;;;-1.05;100.00
63654;BME280;49809;47.418;19.080;2023-11-19T03:11:18;101003.06;;;-1.07;100.00
63654;BME280;49809;47.418;19.080;2023-11-19T03:14:23;101011.84;;;-1.08;100.00
63654;BME280;49809;47.418;19.080;2023-11-19T03:17:27;101010.06;;;-1.08;100.00
63654;BME280;49809;47.418;19.080;2023-11-19T03:20:35;101015.41;;;-1.01;100.00
63654;BME280;49809;47.418;19.080;2023-11-19T03:23:39;101000.97;;;-1.04;100.00
63654;BME280;49809;47.418;19.080;2023-11-19T03:26:49;100999.53;;;-0.98;100.00
63654;BME280;49809;47.418;19.080;2023-11-19T03:29:55;100997.88;;;-0.99;100.00
63654;BME280;49809;47.418;19.080;2023-11-19T03:33:01;100990.72;;;-1.05;100.00
63654;BME280;49809;47.418;19.080;2023-11-19T03:36:13;100995.91;;;-1.05;100.00
63654;BME280;49809;47.418;19.080;2023-11-19T03:39:18;100992.34;;;-1.12;100.00
63654;BME280;49809;47.418;19.080;2023-11-19T03:42:22;101000.63;;;-1.09;100.00
63654;BME280;49809;47.418;19.080;2023-11-19T03:45:25;100983.09;;;-1.07;100.00
63654;BME280;49809;47.418;19.080;2023-11-19T03:48:29;100974.16;;;-1.04;100.00
63654;BME280;49809;47.418;19.080;2023-11-19T03:51:34;100966.56;;;-0.98;100.00
63654;BME280;49809;47.418;19.080;2023-11-19T03:54:59;100955.69;;;-0.93;100.00
63654;BME280;49809;47.418;19.080;2023-11-19T03:58:04;100941.38;;;-0.89;100.00
63654;BME280;49809;47.418;19.080;2023-11-19T04:01:12;100936.19;;;-0.81;100.00
63654;BME280;49809;47.418;19.080;2023-11-19T04:04:21;100947.06;;;-0.77;100.00
63654;BME280;49809;47.418;19.080;2023-11-19T04:07:24;100951.28;;;-0.76;100.00
63654;BME280;49809;47.418;19.080;2023-11-19T04:10:28;100939.94;;;-0.75;100.00
63654;BME280;49809;47.418;19.080;2023-11-19T04:13:32;100932.78;;;-0.73;100.00
63654;BME280;49809;47.418;19.080;2023-11-19T04:16:39;100918.00;;;-0.73;100.00
63654;BME280;49809;47.418;19.080;2023-11-19T04:19:45;100918.31;;;-0.76;100.00
63654;BME280;49809;47.418;19.080;2023-11-19T04:22:50;100925.47;;;-0.78;100.00
63654;BME280;49809;47.418;19.080;2023-11-19T04:25:54;100931.81;;;-0.80;100.00
63654;BME280;49809;47.418;19.080;2023-11-19T04:28:57;100928.06;;;-0.86;100.00
63654;BME280;49809;47.418;19.080;2023-11-19T04:32:02;100920.25;;;-0.94;100.00
63654;BME280;49809;47.418;19.080;2023-11-19T04:35:10;100910.50;;;-1.00;100.00
63654;BME280;49809;47.418;19.080;2023-11-19T04:38:37;100907.56;;;-1.05;100.00
63654;BME280;49809;47.418;19.080;2023-11-19T04:41:50;100906.28;;;-1.09;100.00
63654;BME280;49809;47.418;19.080;2023-11-19T04:44:57;100910.66;;;-1.10;100.00
63654;BME280;49809;47.418;19.080;2023-11-19T04:48:01;100920.22;;;-1.10;100.00
63654;BME280;49809;47.418;19.080;2023-11-19T04:51:14;100943.28;;;-1.15;100.00
63654;BME280;49809;47.418;19.080;2023-11-19T04:54:43;100938.75;;;-1.13;100.00
63654;BME280;49809;47.418;19.080;2023-11-19T04:57:48;100945.25;;;-1.17;100.00
63654;BME280;49809;47.418;19.080;2023-11-19T05:00:53;100955.78;;;-1.19;100.00
63654;BME280;49809;47.418;19.080;2023-11-19T05:04:20;100958.38;;;-1.11;100.00
63654;BME280;49809;47.418;19.080;2023-11-19T05:07:25;100957.12;;;-1.07;100.00
63654;BME280;49809;47.418;19.080;2023-11-19T05:10:29;100941.69;;;-1.00;100.00
63654;BME280;49809;47.418;19.080;2023-11-19T05:13:33;100932.91;;;-0.91;100.00
63654;BME280;49809;47.418;19.080;2023-11-19T05:16:39;100940.06;;;-0.77;100.00
63654;BME280;49809;47.418;19.080;2023-11-19T05:19:43;100946.41;;;-0.71;100.00
63654;BME280;49809;47.418;19.080;2023-11-19T05:23:02;100957.97;;;-0.66;100.00
63654;BME280;49809;47.418;19.080;2023-11-19T05:26:20;100950.00;;;-0.64;100.00
63654;BME280;49809;47.418;19.080;2023-11-19T05:29:23;100943.84;;;-0.63;100.00
63654;BME280;49809;47.418;19.080;2023-11-19T05:32:28;100923.53;;;-0.60;100.00
63654;BME280;49809;47.418;19.080;2023-11-19T05:35:31;100943.84;;;-0.55;100.00
63654;BME280;49809;47.418;19.080;2023-11-19T05:38:35;100939.78;;;-0.50;100.00
63654;BME280;49809;47.418;19.080;2023-11-19T05:42:01;100922.84;;;-0.46;100.00
63654;BME280;49809;47.418;19.080;2023-11-19T05:45:08;100920.88;;;-0.44;100.00
63654;BME280;49809;47.418;19.080;2023-11-19T05:48:23;100929.19;;;-0.40;100.00
63654;BME280;49809;47.418;19.080;2023-11-19T05:51:28;100921.87;;;-0.36;100.00
63654;BME280;49809;47.418;19.080;2023-11-19T05:54:32;100917.81;;;-0.39;100.00
63654;BME280;49809;47.418;19.080;2023-11-19T05:58:00;100933.25;;;-0.46;100.00
63654;BME280;49809;47.418;19.080;2023-11-19T06:01:04;100935.53;;;-0.51;100.00
63654;BME280;49809;47.418;19.080;2023-11-19T06:04:09;100922.06;;;-0.54;100.00
63654;BME280;49809;47.418;19.080;2023-11-19T06:07:14;100924.16;;;-0.58;100.00
63654;BME280;49809;47.418;19.080;2023-11-19T06:10:44;100926.44;;;-0.55;100.00
63654;BME280;49809;47.418;19.080;2023-11-19T06:13:55;100934.25;;;-0.55;100.00
63654;BME280;49809;47.418;19.080;2023-11-19T06:16:59;100923.81;;;-0.47;100.00
63654;BME280;49809;47.418;19.080;2023-11-19T06:20:05;100924.00;;;-0.40;100.00
63654;BME280;49809;47.418;19.080;2023-11-19T06:23:31;100914.41;;;-0.39;100.00
63654;BME280;49809;47.418;19.080;2023-11-19T06:26:34;100925.75;;;-0.32;100.00
63654;BME280;49809;47.418;19.080;2023-11-19T06:29:38;100920.38;;;-0.23;100.00
63654;BME280;49809;47.418;19.080;2023-11-19T06:32:43;100914.16;;;-0.14;100.00
63654;BME280;49809;47.418;19.080;2023-11-19T06:35:49;100907.97;;;-0.05;100.00
63654;BME280;49809;47.418;19.080;2023-11-19T06:39:01;100899.53;;;-0.07;100.00
63654;BME280;49809;47.418;19.080;2023-11-19T06:42:24;100896.41;;;-0.02;100.00
63654;BME280;49809;47.418;19.080;2023-11-19T06:45:47;100892.31;;;0.12;100.00
63654;BME280;49809;47.418;19.080;2023-11-19T06:48:51;100885.91;;;0.22;100.00
63654;BME280;49809;47.418;19.080;2023-11-19T06:52:16;100897.56;;;0.34;100.00
63654;BME280;49809;47.418;19.080;2023-11-19T06:55:42;100889.88;;;0.41;100.00
63654;BME280;49809;47.418;19.080;2023-11-19T06:58:45;100889.31;;;0.54;100.00
63654;BME280;49809;47.418;19.080;2023-11-19T07:01:51;100893.47;;;0.71;100.00
63654;BME280;49809;47.418;19.080;2023-11-19T07:04:55;100889.47;;;0.83;100.00
63654;BME280;49809;47.418;19.080;2023-11-19T07:08:22;100882.00;;;1.03;100.00
63654;BME280;49809;47.418;19.080;2023-11-19T07:11:53;100884.81;;;1.39;100.00
63654;BME280;49809;47.418;19.080;2023-11-19T07:15:16;100889.72;;;1.34;100.00
63654;BME280;49809;47.418;19.080;2023-11-19T07:18:22;100882.84;;;1.55;100.00
63654;BME280;49809;47.418;19.080;2023-11-19T07:21:26;100878.16;;;1.65;100.00
63654;BME280;49809;47.418;19.080;2023-11-19T07:24:31;100886.91;;;1.72;100.00
63654;BME280;49809;47.418;19.080;2023-11-19T07:27:39;100886.53;;;1.61;100.00
63654;BME280;49809;47.418;19.080;2023-11-19T07:31:23;100899.69;;;1.82;100.00
63654;BME280;49809;47.418;19.080;2023-11-19T07:34:29;100893.22;;;1.78;100.00
63654;BME280;49809;47.418;19.080;2023-11-19T07:37:35;100885.56;;;1.77;100.00
63654;BME280;49809;47.418;19.080;2023-11-19T07:40:40;100892.59;;;1.91;100.00
63654;BME280;49809;47.418;19.080;2023-11-19T07:44:02;100891.59;;;2.06;100.00
63654;BME280;49809;47.418;19.080;2023-11-19T07:47:06;100898.72;;;1.98;100.00
63654;BME280;49809;47.418;19.080;2023-11-19T07:50:10;100886.97;;;2.08;100.00
63654;BME280;49809;47.418;19.080;2023-11-19T07:53:16;100898.44;;;2.22;100.00
63654;BME280;49809;47.418;19.080;2023-11-19T07:56:19;100891.19;;;2.39;100.00
63654;BME280;49809;47.418;19.080;2023-11-19T07:59:23;100897.97;;;2.18;100.00
63654;BME280;49809;47.418;19.080;2023-11-19T08:02:30;100889.97;;;2.05;100.00
63654;BME280;49809;47.418;19.080;2023-11-19T08:05:44;100884.81;;;2.27;100.00
63654;BME280;49809;47.418;19.080;2023-11-19T08:08:54;100876.34;;;2.25;100.00
63654;BME280;49809;47.418;19.080;2023-11-19T08:11:58;100870.28;;;2.39;100.00
63654;BME280;49809;47.418;19.080;2023-11-19T08:15:05;100873.31;;;2.42;100.00
63654;BME280;49809;47.418;19.080;2023-11-19T08:18:12;100857.19;;;2.53;100.00
63654;BME280;49809;47.418;19.080;2023-11-19T08:21:14;100843.50;;;2.51;100.00
63654;BME280;49809;47.418;19.080;2023-11-19T08:24:17;100834.94;;;2.43;100.00
63654;BME280;49809;47.418;19.080;2023-11-19T08:27:21;100834.59;;;2.46;100.00
63654;BME280;49809;47.418;19.080;2023-11-19T08:30:32;100825.03;;;2.74;100.00
63654;BME280;49809;47.418;19.080;2023-11-19T08:33:37;100803.22;;;2.67;99.89
63654;BME280;49809;47.418;19.080;2023-11-19T08:36:41;100778.47;;;2.63;100.00
63654;BME280;49809;47.418;19.080;2023-11-19T08:39:44;100819.75;;;2.46;100.00
63654;BME280;49809;47.418;19.080;2023-11-19T08:42:54;100838.19;;;2.45;100.00
63654;BME280;49809;47.418;19.080;2023-11-19T08:45:57;100825.62;;;2.76;100.00
63654;BME280;49809;47.418;19.080;2023-11-19T08:49:03;100809.84;;;2.84;100.00
63654;BME280;49809;47.418;19.080;2023-11-19T08:52:06;100821.84;;;3.00;100.00
63654;BME280;49809;47.418;19.080;2023-11-19T08:55:15;100811.31;;;2.93;100.00
63654;BME280;49809;47.418;19.080;2023-11-19T08:58:37;100799.97;;;3.08;99.92
63654;BME280;49809;47.418;19.080;2023-11-19T09:01:45;100819.50;;;3.12;99.75
63654;BME280;49809;47.418;19.080;2023-11-19T09:04:55;100798.31;;;3.34;99.43
63654;BME280;49809;47.418;19.080;2023-11-19T09:08:35;100815.06;;;3.40;98.70
63654;BME280;49809;47.418;19.080;2023-11-19T09:11:41;100811.19;;;3.64;97.60
63654;BME280;49809;47.418;19.080;2023-11-19T09:14:57;100827.94;;;3.69;97.05
63654;BME280;49809;47.418;19.080;2023-11-19T09:18:00;100820.16;;;3.20;99.16
63654;BME280;49809;47.418;19.080;2023-11-19T09:21:03;100830.34;;;3.09;99.48
63654;BME280;49809;47.418;19.080;2023-11-19T09:24:09;100828.22;;;3.19;100.00
63654;BME280;49809;47.418;19.080;2023-11-19T09:27:14;100836.56;;;3.35;99.23
63654;BME280;49809;47.418;19.080;2023-11-19T09:30:17;100820.78;;;3.50;98.58
63654;BME280;49809;47.418;19.080;2023-11-19T09:33:25;100821.41;;;3.59;98.28
63654;BME280;49809;47.418;19.080;2023-11-19T09:36:29;100830.31;;;3.58;97.79
63654;BME280;49809;47.418;19.080;2023-11-19T09:39:32;100828.94;;;3.34;98.81
63654;BME280;49809;47.418;19.080;2023-11-19T09:42:43;100829.47;;;3.57;98.22
63654;BME280;49809;47.418;19.080;2023-11-19T09:46:15;100814.16;;;3.54;98.90
63654;BME280;49809;47.418;19.080;2023-11-19T09:49:21;100802.87;;;3.54;98.61
63654;BME280;49809;47.418;19.080;2023-11-19T09:52:29;100795.69;;;3.62;98.25
63654;BME280;49809;47.418;19.080;2023-11-19T09:55:32;100789.28;;;3.71;97.55
63654;BME280;49809;47.418;19.080;2023-11-19T09:58:35;100789.34;;;3.84;96.47
63654;BME280;49809;47.418;19.080;2023-11-19T10:01:38;100790.88;;;3.66;97.06
63654;BME280;49809;47.418;19.080;2023-11-19T10:04:42;100778.78;;;3.65;98.17
63654;BME280;49809;47.418;19.080;2023-11-19T10:07:48;100770.72;;;3.66;98.42
63654;BME280;49809;47.418;19.080;2023-11-19T10:10:52;100769.09;;;3.65;98.05
63654;BME280;49809;47.418;19.080;2023-11-19T10:13:56;100767.69;;;3.63;98.06
63654;BME280;49809;47.418;19.080;2023-11-19T10:17:01;100751.91;;;3.97;96.05
63654;BME280;49809;47.418;19.080;2023-11-19T10:20:07;100747.09;;;4.01;96.08
63654;BME280;49809;47.418;19.080;2023-11-19T10:23:12;100749.37;;;3.69;96.53
63654;BME280;49809;47.418;19.080;2023-11-19T10:26:15;100746.28;;;4.07;96.60
63654;BME280;49809;47.418;19.080;2023-11-19T10:29:23;100739.06;;;4.22;95.84
63654;BME280;49809;47.418;19.080;2023-11-19T10:32:26;100716.91;;;4.31;95.70
63654;BME280;49809;47.418;19.080;2023-11-19T10:35:30;100710.06;;;4.43;94.28
63654;BME280;49809;47.418;19.080;2023-11-19T10:38:35;100720.94;;;4.27;94.45
63654;BME280;49809;47.418;19.080;2023-11-19T10:42:15;100720.34;;;4.25;94.81
63654;BME280;49809;47.418;19.080;2023-11-19T10:45:23;100724.59;;;4.46;93.37
63654;BME280;49809;47.418;19.080;2023-11-19T10:48:27;100718.75;;;4.63;92.45
63654;BME280;49809;47.418;19.080;2023-11-19T10:51:31;100714.69;;;4.80;92.81
63654;BME280;49809;47.418;19.080;2023-11-19T10:54:37;100728.22;;;4.51;95.10
63654;BME280;49809;47.418;19.080;2023-11-19T10:57:49;100718.94;;;4.55;95.57
63654;BME280;49809;47.418;19.080;2023-11-19T11:00:58;100710.06;;;4.56;95.24
63654;BME280;49809;47.418;19.080;2023-11-19T11:04:23;100707.66;;;4.61;94.60
63654;BME280;49809;47.418;19.080;2023-11-19T11:07:27;100702.81;;;4.71;94.42
63654;BME280;49809;47.418;19.080;2023-11-19T11:14:18;100685.50;;;4.44;97.10
63654;BME280;49809;47.418;19.080;2023-11-19T11:17:26;100672.38;;;4.57;96.10
63654;BME280;49809;47.418;19.080;2023-11-19T11:20:49;100668.94;;;4.57;97.12
63654;BME280;49809;47.418;19.080;2023-11-19T11:31:21;100652.56;;;4.74;95.58
63654;BME280;49809;47.418;19.080;2023-11-19T11:38:04;100652.00;;;4.53;96.72
63654;BME280;49809;47.418;19.080;2023-11-19T11:41:23;100654.44;;;4.48;96.48
63654;BME280;49809;47.418;19.080;2023-11-19T11:45:00;100653.59;;;4.41;98.61
63654;BME280;49809;47.418;19.080;2023-11-19T11:48:10;100657.66;;;4.36;99.33
63654;BME280;49809;47.418;19.080;2023-11-19T11:51:14;100650.00;;;4.48;98.68
63654;BME280;49809;47.418;19.080;2023-11-19T11:54:40;100645.56;;;4.35;99.68
63654;BME280;49809;47.418;19.080;2023-11-19T11:58:00;100617.53;;;4.49;98.61
63654;BME280;49809;47.418;19.080;2023-11-19T12:01:05;100621.56;;;4.45;100.00
63654;BME280;49809;47.418;19.080;2023-11-19T12:04:12;100626.56;;;4.73;99.84
63654;BME280;49809;47.418;19.080;2023-11-19T12:07:25;100614.84;;;4.75;99.10
63654;BME280;49809;47.418;19.080;2023-11-19T12:10:30;100608.34;;;4.98;98.29
63654;BME280;49809;47.418;19.080;2023-11-19T12:13:56;100595.78;;;5.13;96.24
63654;BME280;49809;47.418;19.080;2023-11-19T12:20:36;100576.34;;;5.27;96.56
63654;BME280;49809;47.418;19.080;2023-11-19T12:23:47;100572.00;;;5.08;96.63
63654;BME280;49809;47.418;19.080;2023-11-19T12:26:53;100573.47;;;5.35;94.83
63654;BME280;49809;47.418;19.080;2023-11-19T12:30:00;100566.13;;;5.50;93.64
63654;BME280;49809;47.418;19.080;2023-11-19T12:33:08;100570.94;;;5.53;92.88
63654;BME280;49809;47.418;19.080;2023-11-19T12:36:21;100551.72;;;5.59;91.73
63654;BME280;49809;47.418;19.080;2023-11-19T12:39:33;100543.94;;;5.46;92.74
63654;BME280;49809;47.418;19.080;2023-11-19T12:42:41;100539.38;;;5.60;92.22
63654;BME280;49809;47.418;19.080;2023-11-19T12:45:47;100534.53;;;5.57;91.48
63654;BME280;49809;47.418;19.080;2023-11-19T12:48:53;100531.38;;;5.48;92.86
63654;BME280;49809;47.418;19.080;2023-11-19T12:51:59;100529.53;;;5.55;92.26
63654;BME280;49809;47.418;19.080;2023-11-19T12:55:03;100526.47;;;5.58;91.60
63654;BME280;49809;47.418;19.080;2023-11-19T12:58:09;100519.91;;;5.43;92.48
63654;BME280;49809;47.418;19.080;2023-11-19T13:01:19;100516.06;;;5.45;93.20
63654;BME280;49809;47.418;19.080;2023-11-19T13:04:30;100502.31;;;5.75;90.58
63654;BME280;49809;47.418;19.080;2023-11-19T13:07:37;100493.16;;;5.52;88.49
63654;BME280;49809;47.418;19.080;2023-11-19T13:10:52;100487.22;;;5.39;89.55
63654;BME280;49809;47.418;19.080;2023-11-19T13:14:01;100491.50;;;5.33;89.18
63654;BME280;49809;47.418;19.080;2023-11-19T13:17:07;100501.56;;;5.05;91.65
63654;BME280;49809;47.418;19.080;2023-11-19T13:20:11;100496.69;;;5.08;91.36
63654;BME280;49809;47.418;19.080;2023-11-19T13:23:23;100507.97;;;5.09;92.52
63654;BME280;49809;47.418;19.080;2023-11-19T13:26:27;100508.13;;;5.20;91.52
63654;BME280;49809;47.418;19.080;2023-11-19T13:29:33;100497.16;;;5.30;90.94
63654;BME280;49809;47.418;19.080;2023-11-19T13:32:46;100496.78;;;5.27;91.36
63654;BME280;49809;47.418;19.080;2023-11-19T13:35:50;100490.84;;;5.38;91.28
63654;BME280;49809;47.418;19.080;2023-11-19T13:38:55;100474.63;;;5.22;91.34
63654;BME280;49809;47.418;19.080;2023-11-19T13:42:02;100485.81;;;5.05;91.82
63654;BME280;49809;47.418;19.080;2023-11-19T13:45:25;100492.06;;;5.04;92.07
63654;BME280;49809;47.418;19.080;2023-11-19T13:48:31;100503.00;;;4.94;92.41
63654;BME280;49809;47.418;19.080;2023-11-19T13:51:39;100487.56;;;5.17;92.07
63654;BME280;49809;47.418;19.080;2023-11-19T13:54:44;100479.56;;;5.06;91.97
63654;BME280;49809;47.418;19.080;2023-11-19T13:57:48;100492.41;;;5.14;91.80
63654;BME280;49809;47.418;19.080;2023-11-19T14:00:51;100473.81;;;5.22;90.85
63654;BME280;49809;47.418;19.080;2023-11-19T14:03:55;100470.59;;;5.20;89.77
63654;BME280;49809;47.418;19.080;2023-11-19T14:06:58;100467.78;;;5.15;90.07
63654;BME280;49809;47.418;19.080;2023-11-19T14:10:03;100469.66;;;5.08;90.94
63654;BME280;49809;47.418;19.080;2023-11-19T14:13:09;100470.31;;;4.97;90.52
63654;BME280;49809;47.418;19.080;2023-11-19T14:16:13;100473.97;;;4.89;92.65
63654;BME280;49809;47.418;19.080;2023-11-19T14:19:18;100474.06;;;4.76;94.77
63654;BME280;49809;47.418;19.080;2023-11-19T14:22:22;100480.53;;;4.67;96.00
63654;BME280;49809;47.418;19.080;2023-11-19T14:25:27;100469.88;;;4.68;95.92
63654;BME280;49809;47.418;19.080;2023-11-19T14:28:31;100471.13;;;4.59;97.40
63654;BME280;49809;47.418;19.080;2023-11-19T14:31:38;100471.75;;;4.48;99.55
63654;BME280;49809;47.418;19.080;2023-11-19T14:34:45;100472.94;;;4.46;100.00
63654;BME280;49809;47.418;19.080;2023-11-19T14:37:51;100472.81;;;4.34;100.00
63654;BME280;49809;47.418;19.080;2023-11-19T14:41:27;100474.84;;;4.19;100.00
63654;BME280;49809;47.418;19.080;2023-11-19T14:44:59;100482.31;;;4.09;100.00
63654;BME280;49809;47.418;19.080;2023-11-19T14:48:03;100475.09;;;4.11;100.00
63654;BME280;49809;47.418;19.080;2023-11-19T14:51:11;100472.84;;;4.08;100.00
63654;BME280;49809;47.418;19.080;2023-11-19T14:54:20;100463.38;;;4.07;100.00
63654;BME280;49809;47.418;19.080;2023-11-19T14:57:26;100475.09;;;4.04;100.00
63654;BME280;49809;47.418;19.080;2023-11-19T15:00:29;100478.94;;;4.02;100.00
63654;BME280;49809;47.418;19.080;2023-11-19T15:03:33;100477.91;;;4.03;100.00
63654;BME280;49809;47.418;19.080;2023-11-19T15:07:09;100487.97;;;3.92;100.00
63654;BME280;49809;47.418;19.080;2023-11-19T15:10:25;100479.94;;;3.94;100.00
63654;BME280;49809;47.418;19.080;2023-11-19T15:13:56;100485.38;;;3.79;100.00
63654;BME280;49809;47.418;19.080;2023-11-19T15:17:00;100480.13;;;3.73;100.00
63654;BME280;49809;47.418;19.080;2023-11-19T15:20:04;100479.94;;;3.74;100.00
63654;BME280;49809;47.418;19.080;2023-11-19T15:23:10;100494.44;;;3.64;100.00
63654;BME280;49809;47.418;19.080;2023-11-19T15:26:34;100475.50;;;3.68;100.00
63654;BME280;49809;47.418;19.080;2023-11-19T15:29:43;100465.84;;;3.75;100.00
63654;BME280;49809;47.418;19.080;2023-11-19T15:32:46;100463.63;;;3.79;100.00
63654;BME280;49809;47.418;19.080;2023-11-19T15:36:10;100483.97;;;3.70;100.00
63654;BME280;49809;47.418;19.080;2023-11-19T15:39:53;100488.37;;;3.63;100.00
63654;BME280;49809;47.418;19.080;2023-11-19T15:43:19;100496.25;;;3.70;100.00
63654;BME280;49809;47.418;19.080;2023-11-19T15:46:47;100478.31;;;3.73;100.00
63654;BME280;49809;47.418;19.080;2023-11-19T15:50:16;100472.69;;;3.76;100.00
63654;BME280;49809;47.418;19.080;2023-11-19T15:53:21;100464.44;;;3.79;100.00
63654;BME280;49809;47.418;19.080;2023-11-19T15:56:46;100475.53;;;3.81;100.00
63654;BME280;49809;47.418;19.080;2023-11-19T16:00:22;100474.31;;;3.77;100.00
63654;BME280;49809;47.418;19.080;2023-11-19T16:03:29;100465.03;;;3.81;100.00
63654;BME280;49809;47.418;19.080;2023-11-19T16:07:05;100442.88;;;3.90;100.00
63654;BME280;49809;47.418;19.080;2023-11-19T16:10:38;100442.06;;;3.83;100.00
63654;BME280;49809;47.418;19.080;2023-11-19T16:13:51;100449.72;;;3.85;100.00
63654;BME280;49809;47.418;19.080;2023-11-19T16:17:35;100442.47;;;3.80;100.00
63654;BME280;49809;47.418;19.080;2023-11-19T16:20:41;100461.63;;;3.74;100.00
63654;BME280;49809;47.418;19.080;2023-11-19T16:23:47;100446.91;;;3.86;100.00
63654;BME280;49809;47.418;19.080;2023-11-19T16:27:30;100442.69;;;3.92;100.00
63654;BME280;49809;47.418;19.080;2023-11-19T16:30:34;100443.66;;;3.98;100.00
63654;BME280;49809;47.418;19.080;2023-11-19T16:33:48;100429.97;;;3.96;100.00
63654;BME280;49809;47.418;19.080;2023-11-19T16:37:12;100421.50;;;3.93;100.00
63654;BME280;49809;47.418;19.080;2023-11-19T16:40:37;100413.87;;;3.85;100.00
63654;BME280;49809;47.418;19.080;2023-11-19T16:44:07;100415.50;;;3.73;100.00
63654;BME280;49809;47.418;19.080;2023-11-19T16:47:41;100436.87;;;3.57;100.00
63654;BME280;49809;47.418;19.080;2023-11-19T16:51:12;100432.22;;;3.59;100.00
63654;BME280;49809;47.418;19.080;2023-11-19T16:54:58;100425.56;;;3.63;100.00
63654;BME280;49809;47.418;19.080;2023-11-19T16:58:11;100404.62;;;3.70;100.00
63654;BME280;49809;47.418;19.080;2023-11-19T17:01:36;100398.59;;;3.69;100.00
63654;BME280;49809;47.418;19.080;2023-11-19T17:05:01;100414.91;;;3.71;100.00
63654;BME280;49809;47.418;19.080;2023-11-19T17:08:27;100430.81;;;3.70;100.00
63654;BME280;49809;47.418;19.080;2023-11-19T17:12:03;100443.69;;;3.71;100.00